sensor_id;sensor_type;location;lat;lon;timestamp;P1;durP1;ratioP1;P2;durP2;ratioP2
42430;SDS011;71905;47.466;19.024;2024-03-07T00:00:33;15.02;;;10.20;;
42430;SDS011;71905;47.466;19.024;2024-03-07T00:03:01;15.77;;;11.02;;
42430;SDS011;71905;47.466;19.024;2024-03-07T00:05:30;14.30;;;10.00;;
42430;SDS011;71905;47.466;19.024;2024-03-07T00:07:58;16.17;;;10.48;;
42430;SDS011;71905;47.466;19.024;2024-03-07T00:10:26;15.32;;;10.45;;
42430;SDS011;71905;47.466;19.024;2024-03-07T00:12:54;15.23;;;9.85;;
42430;SDS011;71905;47.466;19.024;2024-03-07T00:15:23;13.77;;;9.93;;
42430;SDS011;71905;47.466;19.024;2024-03-07T00:17:51;13.45;;;9.52;;
42430;SDS011;71905;47.466;19.024;2024-03-07T00:20:20;14.07;;;9.68;;
42430;SDS011;71905;47.466;19.024;2024-03-07T00:22:48;14.85;;;10.68;;
42430;SDS011;71905;47.466;19.024;2024-03-07T00:25:16;14.18;;;9.88;;
42430;SDS011;71905;47.466;19.024;2024-03-07T00:27:47;14.00;;;9.38;;
42430;SDS011;71905;47.466;19.024;2024-03-07T00:30:16;13.15;;;9.65;;
42430;SDS011;71905;47.466;19.024;2024-03-07T00:32:47;15.55;;;9.70;;
42430;SDS011;71905;47.466;19.024;2024-03-07T00:35:16;14.35;;;10.02;;
42430;SDS011;71905;47.466;19.024;2024-03-07T00:37:45;15.93;;;10.30;;
42430;SDS011;71905;47.466;19.024;2024-03-07T00:40:13;13.30;;;9.43;;
42430;SDS011;71905;47.466;19.024;2024-03-07T00:42:41;13.75;;;9.77;;
42430;SDS011;71905;47.466;19.024;2024-03-07T00:45:10;14.88;;;9.93;;
42430;SDS011;71905;47.466;19.024;2024-03-07T00:47:38;16.23;;;10.30;;
42430;SDS011;71905;47.466;19.024;2024-03-07T00:50:08;14.98;;;10.25;;
42430;SDS011;71905;47.466;19.024;2024-03-07T00:52:37;15.18;;;9.68;;
42430;SDS011;71905;47.466;19.024;2024-03-07T00:55:06;13.45;;;9.57;;
42430;SDS011;71905;47.466;19.024;2024-03-07T00:57:35;14.00;;;9.43;;
42430;SDS011;71905;47.466;19.024;2024-03-07T01:00:04;13.02;;;9.18;;
42430;SDS011;71905;47.466;19.024;2024-03-07T01:02:38;14.70;;;9.20;;
42430;SDS011;71905;47.466;19.024;2024-03-07T01:05:11;12.73;;;9.02;;
42430;SDS011;71905;47.466;19.024;2024-03-07T01:07:41;13.65;;;9.13;;
42430;SDS011;71905;47.466;19.024;2024-03-07T01:10:09;12.63;;;8.95;;
42430;SDS011;71905;47.466;19.024;2024-03-07T01:12:38;12.93;;;8.63;;
42430;SDS011;71905;47.466;19.024;2024-03-07T01:15:06;12.98;;;9.07;;
42430;SDS011;71905;47.466;19.024;2024-03-07T01:17:35;14.25;;;9.48;;
42430;SDS011;71905;47.466;19.024;2024-03-07T01:20:04;13.20;;;8.68;;
42430;SDS011;71905;47.466;19.024;2024-03-07T01:22:34;12.55;;;8.77;;
42430;SDS011;71905;47.466;19.024;2024-03-07T01:25:02;12.43;;;9.07;;
42430;SDS011;71905;47.466;19.024;2024-03-07T01:27:30;12.73;;;8.55;;
42430;SDS011;71905;47.466;19.024;2024-03-07T01:29:58;12.27;;;8.18;;
42430;SDS011;71905;47.466;19.024;2024-03-07T01:32:28;12.75;;;8.05;;
42430;SDS011;71905;47.466;19.024;2024-03-07T01:34:56;12.73;;;8.68;;
42430;SDS011;71905;47.466;19.024;2024-03-07T01:37:24;11.13;;;7.78;;
42430;SDS011;71905;47.466;19.024;2024-03-07T01:39:54;11.23;;;7.82;;
42430;SDS011;71905;47.466;19.024;2024-03-07T01:42:22;11.90;;;7.72;;
42430;SDS011;71905;47.466;19.024;2024-03-07T01:44:51;13.23;;;7.93;;
42430;SDS011;71905;47.466;19.024;2024-03-07T01:47:19;11.07;;;7.85;;
42430;SDS011;71905;47.466;19.024;2024-03-07T01:49:47;11.38;;;7.90;;
42430;SDS011;71905;47.466;19.024;2024-03-07T01:52:16;12.18;;;8.10;;
42430;SDS011;71905;47.466;19.024;2024-03-07T01:54:44;11.98;;;7.70;;
42430;SDS011;71905;47.466;19.024;2024-03-07T01:57:16;13.18;;;7.88;;
42430;SDS011;71905;47.466;19.024;2024-03-07T01:59:46;11.55;;;7.70;;
42430;SDS011;71905;47.466;19.024;2024-03-07T02:02:16;10.65;;;7.45;;
42430;SDS011;71905;47.466;19.024;2024-03-07T02:04:45;11.65;;;7.75;;
42430;SDS011;71905;47.466;19.024;2024-03-07T02:07:13;10.40;;;7.35;;
42430;SDS011;71905;47.466;19.024;2024-03-07T02:09:41;10.57;;;7.60;;
42430;SDS011;71905;47.466;19.024;2024-03-07T02:12:09;12.55;;;8.25;;
42430;SDS011;71905;47.466;19.024;2024-03-07T02:14:38;10.88;;;7.25;;
42430;SDS011;71905;47.466;19.024;2024-03-07T02:17:06;10.98;;;7.53;;
42430;SDS011;71905;47.466;19.024;2024-03-07T02:19:35;10.18;;;7.13;;
42430;SDS011;71905;47.466;19.024;2024-03-07T02:22:04;10.45;;;6.95;;
42430;SDS011;71905;47.466;19.024;2024-03-07T02:24:32;10.93;;;7.13;;
42430;SDS011;71905;47.466;19.024;2024-03-07T02:27:00;10.40;;;7.30;;
42430;SDS011;71905;47.466;19.024;2024-03-07T02:29:28;11.70;;;7.10;;
42430;SDS011;71905;47.466;19.024;2024-03-07T02:31:57;10.00;;;6.75;;
42430;SDS011;71905;47.466;19.024;2024-03-07T02:34:25;9.77;;;6.93;;
42430;SDS011;71905;47.466;19.024;2024-03-07T02:36:53;11.38;;;7.00;;
42430;SDS011;71905;47.466;19.024;2024-03-07T02:39:23;11.32;;;7.00;;
42430;SDS011;71905;47.466;19.024;2024-03-07T02:41:52;9.90;;;6.78;;
42430;SDS011;71905;47.466;19.024;2024-03-07T02:44:20;10.23;;;6.88;;
42430;SDS011;71905;47.466;19.024;2024-03-07T02:46:48;10.38;;;6.90;;
42430;SDS011;71905;47.466;19.024;2024-03-07T02:49:16;10.02;;;7.10;;
42430;SDS011;71905;47.466;19.024;2024-03-07T02:51:44;10.13;;;6.78;;
42430;SDS011;71905;47.466;19.024;2024-03-07T02:54:12;9.70;;;6.30;;
42430;SDS011;71905;47.466;19.024;2024-03-07T02:56:42;10.10;;;6.53;;
42430;SDS011;71905;47.466;19.024;2024-03-07T02:59:10;9.07;;;6.65;;
42430;SDS011;71905;47.466;19.024;2024-03-07T03:01:38;13.07;;;6.63;;
42430;SDS011;71905;47.466;19.024;2024-03-07T03:04:06;10.38;;;6.50;;
42430;SDS011;71905;47.466;19.024;2024-03-07T03:06:34;10.35;;;6.47;;
42430;SDS011;71905;47.466;19.024;2024-03-07T03:09:02;9.65;;;6.30;;
42430;SDS011;71905;47.466;19.024;2024-03-07T03:11:31;9.52;;;5.95;;
42430;SDS011;71905;47.466;19.024;2024-03-07T03:14:01;10.93;;;5.68;;
42430;SDS011;71905;47.466;19.024;2024-03-07T03:16:30;9.07;;;5.90;;
42430;SDS011;71905;47.466;19.024;2024-03-07T03:19:13;8.68;;;6.30;;
42430;SDS011;71905;47.466;19.024;2024-03-07T03:21:41;8.32;;;6.10;;
42430;SDS011;71905;47.466;19.024;2024-03-07T03:24:10;10.98;;;5.90;;
42430;SDS011;71905;47.466;19.024;2024-03-07T03:26:38;10.57;;;6.13;;
42430;SDS011;71905;47.466;19.024;2024-03-07T03:29:10;11.77;;;5.85;;
42430;SDS011;71905;47.466;19.024;2024-03-07T03:31:40;9.10;;;5.72;;
42430;SDS011;71905;47.466;19.024;2024-03-07T03:34:08;7.60;;;5.40;;
42430;SDS011;71905;47.466;19.024;2024-03-07T03:36:37;10.50;;;5.60;;
42430;SDS011;71905;47.466;19.024;2024-03-07T03:39:05;7.90;;;5.53;;
42430;SDS011;71905;47.466;19.024;2024-03-07T03:41:34;8.60;;;5.85;;
42430;SDS011;71905;47.466;19.024;2024-03-07T03:44:02;10.60;;;6.07;;
42430;SDS011;71905;47.466;19.024;2024-03-07T03:46:31;9.18;;;5.20;;
42430;SDS011;71905;47.466;19.024;2024-03-07T03:48:59;10.00;;;6.18;;
42430;SDS011;71905;47.466;19.024;2024-03-07T03:51:27;12.35;;;5.38;;
42430;SDS011;71905;47.466;19.024;2024-03-07T03:53:56;11.30;;;5.03;;
42430;SDS011;71905;47.466;19.024;2024-03-07T03:56:24;7.57;;;5.28;;
42430;SDS011;71905;47.466;19.024;2024-03-07T03:58:53;6.82;;;5.25;;
42430;SDS011;71905;47.466;19.024;2024-03-07T04:01:21;7.70;;;5.20;;
42430;SDS011;71905;47.466;19.024;2024-03-07T04:03:51;7.03;;;5.22;;
42430;SDS011;71905;47.466;19.024;2024-03-07T04:06:19;7.93;;;5.53;;
42430;SDS011;71905;47.466;19.024;2024-03-07T04:08:48;7.70;;;5.00;;
42430;SDS011;71905;47.466;19.024;2024-03-07T04:11:16;11.68;;;5.28;;
42430;SDS011;71905;47.466;19.024;2024-03-07T04:13:44;6.75;;;4.80;;
42430;SDS011;71905;47.466;19.024;2024-03-07T04:16:13;11.27;;;5.53;;
42430;SDS011;71905;47.466;19.024;2024-03-07T04:18:42;8.60;;;5.10;;
42430;SDS011;71905;47.466;19.024;2024-03-07T04:21:11;11.05;;;5.65;;
42430;SDS011;71905;47.466;19.024;2024-03-07T04:23:39;7.30;;;5.53;;
42430;SDS011;71905;47.466;19.024;2024-03-07T04:26:08;8.15;;;5.47;;
42430;SDS011;71905;47.466;19.024;2024-03-07T04:28:35;7.20;;;4.75;;
42430;SDS011;71905;47.466;19.024;2024-03-07T04:31:03;7.22;;;5.05;;
42430;SDS011;71905;47.466;19.024;2024-03-07T04:33:31;8.35;;;5.80;;
42430;SDS011;71905;47.466;19.024;2024-03-07T04:35:59;8.80;;;5.78;;
42430;SDS011;71905;47.466;19.024;2024-03-07T04:38:31;7.35;;;5.50;;
42430;SDS011;71905;47.466;19.024;2024-03-07T04:40:59;10.10;;;5.38;;
42430;SDS011;71905;47.466;19.024;2024-03-07T04:43:27;9.23;;;5.45;;
42430;SDS011;71905;47.466;19.024;2024-03-07T04:45:55;6.68;;;4.82;;
42430;SDS011;71905;47.466;19.024;2024-03-07T04:48:23;7.50;;;5.05;;
42430;SDS011;71905;47.466;19.024;2024-03-07T04:50:51;9.52;;;5.60;;
42430;SDS011;71905;47.466;19.024;2024-03-07T04:53:19;7.05;;;4.93;;
42430;SDS011;71905;47.466;19.024;2024-03-07T04:55:49;7.80;;;5.25;;
42430;SDS011;71905;47.466;19.024;2024-03-07T04:58:17;10.95;;;6.15;;
42430;SDS011;71905;47.466;19.024;2024-03-07T05:00:45;8.30;;;4.80;;
42430;SDS011;71905;47.466;19.024;2024-03-07T05:03:13;7.78;;;5.22;;
42430;SDS011;71905;47.466;19.024;2024-03-07T05:05:41;7.30;;;4.93;;
42430;SDS011;71905;47.466;19.024;2024-03-07T05:08:09;8.35;;;5.50;;
42430;SDS011;71905;47.466;19.024;2024-03-07T05:10:38;8.63;;;4.90;;
42430;SDS011;71905;47.466;19.024;2024-03-07T05:13:09;8.10;;;5.10;;
42430;SDS011;71905;47.466;19.024;2024-03-07T05:15:37;8.05;;;4.95;;
42430;SDS011;71905;47.466;19.024;2024-03-07T05:18:06;7.82;;;4.85;;
42430;SDS011;71905;47.466;19.024;2024-03-07T05:20:35;8.30;;;5.50;;
42430;SDS011;71905;47.466;19.024;2024-03-07T05:23:03;8.40;;;5.00;;
42430;SDS011;71905;47.466;19.024;2024-03-07T05:25:32;7.30;;;4.78;;
42430;SDS011;71905;47.466;19.024;2024-03-07T05:28:00;7.68;;;5.10;;
42430;SDS011;71905;47.466;19.024;2024-03-07T05:30:30;7.13;;;4.95;;
42430;SDS011;71905;47.466;19.024;2024-03-07T05:32:59;8.18;;;5.35;;
42430;SDS011;71905;47.466;19.024;2024-03-07T05:35:28;7.57;;;5.03;;
42430;SDS011;71905;47.466;19.024;2024-03-07T05:37:57;12.10;;;5.63;;
42430;SDS011;71905;47.466;19.024;2024-03-07T05:40:28;10.20;;;5.25;;
42430;SDS011;71905;47.466;19.024;2024-03-07T05:42:56;8.15;;;5.13;;
42430;SDS011;71905;47.466;19.024;2024-03-07T05:45:24;10.85;;;5.40;;
42430;SDS011;71905;47.466;19.024;2024-03-07T05:47:53;9.20;;;5.28;;
42430;SDS011;71905;47.466;19.024;2024-03-07T05:50:21;10.85;;;5.10;;
42430;SDS011;71905;47.466;19.024;2024-03-07T05:52:49;9.52;;;5.10;;
42430;SDS011;71905;47.466;19.024;2024-03-07T05:55:17;8.75;;;4.80;;
42430;SDS011;71905;47.466;19.024;2024-03-07T05:57:48;8.70;;;5.10;;
42430;SDS011;71905;47.466;19.024;2024-03-07T06:00:16;8.77;;;4.95;;
42430;SDS011;71905;47.466;19.024;2024-03-07T06:02:55;8.70;;;5.53;;
42430;SDS011;71905;47.466;19.024;2024-03-07T06:05:24;7.65;;;4.90;;
42430;SDS011;71905;47.466;19.024;2024-03-07T06:07:53;9.65;;;5.80;;
42430;SDS011;71905;47.466;19.024;2024-03-07T06:10:21;10.55;;;5.80;;
42430;SDS011;71905;47.466;19.024;2024-03-07T06:12:50;10.15;;;5.18;;
42430;SDS011;71905;47.466;19.024;2024-03-07T06:15:35;7.90;;;5.53;;
42430;SDS011;71905;47.466;19.024;2024-03-07T06:18:06;8.80;;;5.25;;
42430;SDS011;71905;47.466;19.024;2024-03-07T06:20:37;7.20;;;4.43;;
42430;SDS011;71905;47.466;19.024;2024-03-07T06:23:07;10.57;;;5.00;;
42430;SDS011;71905;47.466;19.024;2024-03-07T06:25:36;8.60;;;5.00;;
42430;SDS011;71905;47.466;19.024;2024-03-07T06:28:15;10.48;;;4.57;;
42430;SDS011;71905;47.466;19.024;2024-03-07T06:30:44;8.43;;;4.88;;
42430;SDS011;71905;47.466;19.024;2024-03-07T06:33:14;8.38;;;5.53;;
42430;SDS011;71905;47.466;19.024;2024-03-07T06:35:47;6.85;;;4.80;;
42430;SDS011;71905;47.466;19.024;2024-03-07T06:38:16;9.10;;;4.97;;
42430;SDS011;71905;47.466;19.024;2024-03-07T06:40:44;7.07;;;4.97;;
42430;SDS011;71905;47.466;19.024;2024-03-07T06:43:12;6.35;;;4.40;;
42430;SDS011;71905;47.466;19.024;2024-03-07T06:45:40;5.43;;;4.15;;
42430;SDS011;71905;47.466;19.024;2024-03-07T06:48:09;6.57;;;4.57;;
42430;SDS011;71905;47.466;19.024;2024-03-07T06:50:39;7.68;;;4.85;;
42430;SDS011;71905;47.466;19.024;2024-03-07T06:53:07;8.82;;;4.63;;
42430;SDS011;71905;47.466;19.024;2024-03-07T06:55:35;7.05;;;4.38;;
42430;SDS011;71905;47.466;19.024;2024-03-07T06:58:05;10.13;;;4.82;;
42430;SDS011;71905;47.466;19.024;2024-03-07T07:00:33;8.93;;;4.97;;
42430;SDS011;71905;47.466;19.024;2024-03-07T07:03:04;6.65;;;4.63;;
42430;SDS011;71905;47.466;19.024;2024-03-07T07:05:33;7.82;;;5.13;;
42430;SDS011;71905;47.466;19.024;2024-03-07T07:08:03;8.80;;;4.95;;
42430;SDS011;71905;47.466;19.024;2024-03-07T07:10:33;7.13;;;4.68;;
42430;SDS011;71905;47.466;19.024;2024-03-07T07:13:02;6.30;;;4.13;;
42430;SDS011;71905;47.466;19.024;2024-03-07T07:15:31;7.35;;;4.60;;
42430;SDS011;71905;47.466;19.024;2024-03-07T07:17:59;8.40;;;5.30;;
42430;SDS011;71905;47.466;19.024;2024-03-07T07:20:29;8.82;;;5.18;;
42430;SDS011;71905;47.466;19.024;2024-03-07T07:22:57;7.95;;;5.05;;
42430;SDS011;71905;47.466;19.024;2024-03-07T07:25:28;6.40;;;4.82;;
42430;SDS011;71905;47.466;19.024;2024-03-07T07:27:56;5.95;;;4.20;;
42430;SDS011;71905;47.466;19.024;2024-03-07T07:30:25;8.23;;;4.65;;
42430;SDS011;71905;47.466;19.024;2024-03-07T07:32:53;8.00;;;5.30;;
42430;SDS011;71905;47.466;19.024;2024-03-07T07:35:21;8.68;;;4.72;;
42430;SDS011;71905;47.466;19.024;2024-03-07T07:37:50;6.57;;;4.90;;
42430;SDS011;71905;47.466;19.024;2024-03-07T07:40:20;6.07;;;4.40;;
42430;SDS011;71905;47.466;19.024;2024-03-07T07:42:51;5.85;;;4.40;;
42430;SDS011;71905;47.466;19.024;2024-03-07T07:45:21;8.32;;;4.40;;
42430;SDS011;71905;47.466;19.024;2024-03-07T07:47:50;7.40;;;4.97;;
42430;SDS011;71905;47.466;19.024;2024-03-07T07:50:21;6.45;;;4.60;;
42430;SDS011;71905;47.466;19.024;2024-03-07T07:52:50;5.95;;;4.20;;
42430;SDS011;71905;47.466;19.024;2024-03-07T07:55:20;5.72;;;4.28;;
42430;SDS011;71905;47.466;19.024;2024-03-07T07:57:49;7.15;;;4.85;;
42430;SDS011;71905;47.466;19.024;2024-03-07T08:00:21;8.98;;;4.82;;
42430;SDS011;71905;47.466;19.024;2024-03-07T08:02:56;9.05;;;4.60;;
42430;SDS011;71905;47.466;19.024;2024-03-07T08:05:26;7.05;;;4.47;;
42430;SDS011;71905;47.466;19.024;2024-03-07T08:07:56;6.20;;;4.38;;
42430;SDS011;71905;47.466;19.024;2024-03-07T08:10:25;7.47;;;4.22;;
42430;SDS011;71905;47.466;19.024;2024-03-07T08:12:57;7.13;;;4.88;;
42430;SDS011;71905;47.466;19.024;2024-03-07T08:15:26;6.20;;;4.80;;
42430;SDS011;71905;47.466;19.024;2024-03-07T08:17:56;7.60;;;4.60;;
42430;SDS011;71905;47.466;19.024;2024-03-07T08:20:25;7.28;;;4.90;;
42430;SDS011;71905;47.466;19.024;2024-03-07T08:22:54;6.45;;;5.32;;
42430;SDS011;71905;47.466;19.024;2024-03-07T08:25:24;9.73;;;5.35;;
42430;SDS011;71905;47.466;19.024;2024-03-07T08:27:54;7.15;;;4.57;;
42430;SDS011;71905;47.466;19.024;2024-03-07T08:30:26;5.95;;;4.57;;
42430;SDS011;71905;47.466;19.024;2024-03-07T08:32:56;7.95;;;4.80;;
42430;SDS011;71905;47.466;19.024;2024-03-07T08:35:26;10.68;;;5.00;;
42430;SDS011;71905;47.466;19.024;2024-03-07T08:37:56;7.18;;;4.63;;
42430;SDS011;71905;47.466;19.024;2024-03-07T08:40:25;7.30;;;4.72;;
42430;SDS011;71905;47.466;19.024;2024-03-07T08:42:58;9.48;;;5.05;;
42430;SDS011;71905;47.466;19.024;2024-03-07T08:45:29;10.82;;;7.40;;
42430;SDS011;71905;47.466;19.024;2024-03-07T08:48:01;7.00;;;5.03;;
42430;SDS011;71905;47.466;19.024;2024-03-07T08:50:32;7.07;;;4.97;;
42430;SDS011;71905;47.466;19.024;2024-03-07T08:53:01;6.25;;;4.72;;
42430;SDS011;71905;47.466;19.024;2024-03-07T08:55:31;7.63;;;4.80;;
42430;SDS011;71905;47.466;19.024;2024-03-07T08:57:58;6.22;;;5.00;;
42430;SDS011;71905;47.466;19.024;2024-03-07T09:00:26;7.10;;;4.53;;
42430;SDS011;71905;47.466;19.024;2024-03-07T09:02:57;7.03;;;4.38;;
42430;SDS011;71905;47.466;19.024;2024-03-07T09:05:29;5.65;;;3.85;;
42430;SDS011;71905;47.466;19.024;2024-03-07T09:08:00;5.53;;;4.50;;
42430;SDS011;71905;47.466;19.024;2024-03-07T09:10:30;6.75;;;4.25;;
42430;SDS011;71905;47.466;19.024;2024-03-07T09:12:58;9.13;;;4.28;;
42430;SDS011;71905;47.466;19.024;2024-03-07T09:15:26;6.45;;;4.22;;
42430;SDS011;71905;47.466;19.024;2024-03-07T09:17:56;8.15;;;4.32;;
42430;SDS011;71905;47.466;19.024;2024-03-07T09:20:25;8.65;;;4.80;;
42430;SDS011;71905;47.466;19.024;2024-03-07T09:22:53;5.70;;;4.28;;
42430;SDS011;71905;47.466;19.024;2024-03-07T09:25:22;6.43;;;4.10;;
42430;SDS011;71905;47.466;19.024;2024-03-07T09:27:52;6.63;;;4.78;;
42430;SDS011;71905;47.466;19.024;2024-03-07T09:30:22;7.00;;;4.85;;
42430;SDS011;71905;47.466;19.024;2024-03-07T09:32:52;9.70;;;4.75;;
42430;SDS011;71905;47.466;19.024;2024-03-07T09:35:24;7.75;;;4.18;;
42430;SDS011;71905;47.466;19.024;2024-03-07T09:37:52;9.07;;;4.97;;
42430;SDS011;71905;47.466;19.024;2024-03-07T09:40:22;6.68;;;4.63;;
42430;SDS011;71905;47.466;19.024;2024-03-07T09:42:53;6.60;;;4.55;;
42430;SDS011;71905;47.466;19.024;2024-03-07T09:45:28;5.88;;;4.32;;
42430;SDS011;71905;47.466;19.024;2024-03-07T09:47:57;6.80;;;4.72;;
42430;SDS011;71905;47.466;19.024;2024-03-07T09:50:28;7.40;;;4.00;;
42430;SDS011;71905;47.466;19.024;2024-03-07T09:52:58;7.13;;;4.63;;
42430;SDS011;71905;47.466;19.024;2024-03-07T09:55:27;7.20;;;4.97;;
42430;SDS011;71905;47.466;19.024;2024-03-07T09:57:56;8.40;;;4.60;;
42430;SDS011;71905;47.466;19.024;2024-03-07T10:00:28;6.53;;;4.78;;
42430;SDS011;71905;47.466;19.024;2024-03-07T10:02:58;7.68;;;4.90;;
42430;SDS011;71905;47.466;19.024;2024-03-07T10:05:31;6.30;;;5.50;;
42430;SDS011;71905;47.466;19.024;2024-03-07T10:07:59;7.57;;;5.38;;
42430;SDS011;71905;47.466;19.024;2024-03-07T10:10:29;9.38;;;6.00;;
42430;SDS011;71905;47.466;19.024;2024-03-07T10:12:58;9.38;;;5.63;;
42430;SDS011;71905;47.466;19.024;2024-03-07T10:15:29;7.40;;;5.40;;
42430;SDS011;71905;47.466;19.024;2024-03-07T10:17:58;7.40;;;5.50;;
42430;SDS011;71905;47.466;19.024;2024-03-07T10:20:28;9.70;;;5.53;;
42430;SDS011;71905;47.466;19.024;2024-03-07T10:22:58;9.05;;;5.45;;
42430;SDS011;71905;47.466;19.024;2024-03-07T10:25:27;8.30;;;5.60;;
42430;SDS011;71905;47.466;19.024;2024-03-07T10:27:56;10.80;;;6.03;;
42430;SDS011;71905;47.466;19.024;2024-03-07T10:30:25;14.43;;;6.05;;
42430;SDS011;71905;47.466;19.024;2024-03-07T10:32:55;11.85;;;5.80;;
42430;SDS011;71905;47.466;19.024;2024-03-07T10:35:26;8.23;;;6.00;;
42430;SDS011;71905;47.466;19.024;2024-03-07T10:37:57;10.07;;;6.25;;
42430;SDS011;71905;47.466;19.024;2024-03-07T10:40:28;8.52;;;6.28;;
42430;SDS011;71905;47.466;19.024;2024-03-07T10:42:57;8.32;;;6.43;;
42430;SDS011;71905;47.466;19.024;2024-03-07T10:45:30;10.32;;;7.05;;
42430;SDS011;71905;47.466;19.024;2024-03-07T10:48:01;8.43;;;6.72;;
42430;SDS011;71905;47.466;19.024;2024-03-07T10:50:39;11.85;;;7.13;;
42430;SDS011;71905;47.466;19.024;2024-03-07T10:53:20;7.85;;;6.38;;
42430;SDS011;71905;47.466;19.024;2024-03-07T10:56:08;14.38;;;6.63;;
42430;SDS011;71905;47.466;19.024;2024-03-07T10:58:52;8.40;;;6.65;;
42430;SDS011;71905;47.466;19.024;2024-03-07T11:01:27;16.95;;;10.00;;
42430;SDS011;71905;47.466;19.024;2024-03-07T11:04:00;10.95;;;6.90;;
42430;SDS011;71905;47.466;19.024;2024-03-07T11:06:32;9.35;;;6.53;;
42430;SDS011;71905;47.466;19.024;2024-03-07T11:09:05;9.40;;;7.13;;
42430;SDS011;71905;47.466;19.024;2024-03-07T11:11:38;8.45;;;6.53;;
42430;SDS011;71905;47.466;19.024;2024-03-07T11:14:08;8.60;;;6.18;;
42430;SDS011;71905;47.466;19.024;2024-03-07T11:16:38;9.43;;;7.00;;
42430;SDS011;71905;47.466;19.024;2024-03-07T11:19:17;11.20;;;6.63;;
42430;SDS011;71905;47.466;19.024;2024-03-07T11:21:54;11.88;;;7.22;;
42430;SDS011;71905;47.466;19.024;2024-03-07T11:24:25;10.75;;;7.80;;
42430;SDS011;71905;47.466;19.024;2024-03-07T11:26:55;10.60;;;7.50;;
42430;SDS011;71905;47.466;19.024;2024-03-07T11:29:45;8.70;;;6.90;;
42430;SDS011;71905;47.466;19.024;2024-03-07T11:32:20;9.35;;;6.85;;
42430;SDS011;71905;47.466;19.024;2024-03-07T11:34:50;11.65;;;7.53;;
42430;SDS011;71905;47.466;19.024;2024-03-07T11:40:12;11.48;;;7.10;;
42430;SDS011;71905;47.466;19.024;2024-03-07T11:42:46;10.13;;;6.95;;
42430;SDS011;71905;47.466;19.024;2024-03-07T11:45:16;10.43;;;7.68;;
42430;SDS011;71905;47.466;19.024;2024-03-07T11:47:51;11.05;;;7.15;;
42430;SDS011;71905;47.466;19.024;2024-03-07T11:50:27;10.05;;;6.85;;
42430;SDS011;71905;47.466;19.024;2024-03-07T11:52:55;8.70;;;7.22;;
42430;SDS011;71905;47.466;19.024;2024-03-07T11:55:25;11.25;;;7.82;;
42430;SDS011;71905;47.466;19.024;2024-03-07T11:57:55;10.93;;;7.47;;
42430;SDS011;71905;47.466;19.024;2024-03-07T12:00:23;11.68;;;7.55;;
42430;SDS011;71905;47.466;19.024;2024-03-07T12:03:01;11.27;;;7.18;;
42430;SDS011;71905;47.466;19.024;2024-03-07T12:05:32;14.88;;;8.13;;
42430;SDS011;71905;47.466;19.024;2024-03-07T12:08:00;10.77;;;7.75;;
42430;SDS011;71905;47.466;19.024;2024-03-07T12:10:33;10.43;;;7.78;;
42430;SDS011;71905;47.466;19.024;2024-03-07T12:13:03;12.15;;;7.65;;
42430;SDS011;71905;47.466;19.024;2024-03-07T12:15:31;10.95;;;8.20;;
42430;SDS011;71905;47.466;19.024;2024-03-07T12:18:00;10.52;;;7.35;;
42430;SDS011;71905;47.466;19.024;2024-03-07T12:20:29;13.13;;;7.85;;
42430;SDS011;71905;47.466;19.024;2024-03-07T12:23:00;15.98;;;8.15;;
42430;SDS011;71905;47.466;19.024;2024-03-07T12:25:29;12.75;;;8.23;;
42430;SDS011;71905;47.466;19.024;2024-03-07T12:28:03;14.82;;;7.88;;
42430;SDS011;71905;47.466;19.024;2024-03-07T12:30:33;9.10;;;7.53;;
42430;SDS011;71905;47.466;19.024;2024-03-07T12:33:04;10.50;;;7.35;;
42430;SDS011;71905;47.466;19.024;2024-03-07T12:35:34;12.05;;;8.32;;
42430;SDS011;71905;47.466;19.024;2024-03-07T12:38:03;13.05;;;8.45;;
42430;SDS011;71905;47.466;19.024;2024-03-07T12:40:31;11.38;;;8.75;;
42430;SDS011;71905;47.466;19.024;2024-03-07T12:43:02;11.40;;;7.72;;
42430;SDS011;71905;47.466;19.024;2024-03-07T12:45:42;10.85;;;7.50;;
42430;SDS011;71905;47.466;19.024;2024-03-07T12:48:11;14.35;;;8.43;;
42430;SDS011;71905;47.466;19.024;2024-03-07T12:50:41;11.45;;;8.20;;
42430;SDS011;71905;47.466;19.024;2024-03-07T12:53:09;10.82;;;8.27;;
42430;SDS011;71905;47.466;19.024;2024-03-07T12:55:39;11.00;;;7.97;;
42430;SDS011;71905;47.466;19.024;2024-03-07T12:58:10;11.23;;;7.97;;
42430;SDS011;71905;47.466;19.024;2024-03-07T13:00:39;12.63;;;8.77;;
42430;SDS011;71905;47.466;19.024;2024-03-07T13:03:08;15.88;;;9.68;;
42430;SDS011;71905;47.466;19.024;2024-03-07T13:05:36;12.65;;;8.40;;
42430;SDS011;71905;47.466;19.024;2024-03-07T13:08:07;12.32;;;8.27;;
42430;SDS011;71905;47.466;19.024;2024-03-07T13:10:38;13.30;;;9.38;;
42430;SDS011;71905;47.466;19.024;2024-03-07T13:13:07;15.15;;;8.40;;
42430;SDS011;71905;47.466;19.024;2024-03-07T13:15:39;11.73;;;9.10;;
42430;SDS011;71905;47.466;19.024;2024-03-07T13:18:08;12.00;;;8.98;;
42430;SDS011;71905;47.466;19.024;2024-03-07T13:20:37;12.50;;;9.15;;
42430;SDS011;71905;47.466;19.024;2024-03-07T13:23:05;11.63;;;8.85;;
42430;SDS011;71905;47.466;19.024;2024-03-07T13:25:34;13.30;;;8.95;;
42430;SDS011;71905;47.466;19.024;2024-03-07T13:28:03;14.05;;;8.30;;
42430;SDS011;71905;47.466;19.024;2024-03-07T13:30:34;13.52;;;8.43;;
42430;SDS011;71905;47.466;19.024;2024-03-07T13:33:04;11.73;;;7.90;;
42430;SDS011;71905;47.466;19.024;2024-03-07T13:35:32;12.40;;;8.38;;
42430;SDS011;71905;47.466;19.024;2024-03-07T13:38:02;12.48;;;9.30;;
42430;SDS011;71905;47.466;19.024;2024-03-07T13:40:31;10.55;;;7.72;;
42430;SDS011;71905;47.466;19.024;2024-03-07T13:43:01;11.88;;;7.90;;
42430;SDS011;71905;47.466;19.024;2024-03-07T13:45:29;13.00;;;7.78;;
42430;SDS011;71905;47.466;19.024;2024-03-07T13:47:58;13.60;;;8.43;;
42430;SDS011;71905;47.466;19.024;2024-03-07T13:50:28;12.13;;;8.65;;
42430;SDS011;71905;47.466;19.024;2024-03-07T13:53:20;10.60;;;7.95;;
42430;SDS011;71905;47.466;19.024;2024-03-07T13:56:04;15.85;;;8.93;;
42430;SDS011;71905;47.466;19.024;2024-03-07T13:59:05;11.80;;;8.60;;
42430;SDS011;71905;47.466;19.024;2024-03-07T14:01:50;11.70;;;8.20;;
42430;SDS011;71905;47.466;19.024;2024-03-07T14:04:52;11.82;;;8.85;;
42430;SDS011;71905;47.466;19.024;2024-03-07T14:07:50;18.48;;;10.77;;
42430;SDS011;71905;47.466;19.024;2024-03-07T14:10:38;14.98;;;9.38;;
42430;SDS011;71905;47.466;19.024;2024-03-07T14:13:34;15.60;;;9.52;;
42430;SDS011;71905;47.466;19.024;2024-03-07T14:16:33;13.85;;;8.70;;
42430;SDS011;71905;47.466;19.024;2024-03-07T14:22:47;14.52;;;10.02;;
42430;SDS011;71905;47.466;19.024;2024-03-07T14:25:47;12.88;;;9.25;;
42430;SDS011;71905;47.466;19.024;2024-03-07T14:28:42;14.63;;;9.68;;
42430;SDS011;71905;47.466;19.024;2024-03-07T14:31:19;16.55;;;9.32;;
42430;SDS011;71905;47.466;19.024;2024-03-07T14:33:50;14.43;;;8.98;;
42430;SDS011;71905;47.466;19.024;2024-03-07T14:36:35;14.40;;;9.07;;
42430;SDS011;71905;47.466;19.024;2024-03-07T14:39:07;13.93;;;9.40;;
42430;SDS011;71905;47.466;19.024;2024-03-07T14:41:42;12.13;;;8.60;;
42430;SDS011;71905;47.466;19.024;2024-03-07T14:44:15;11.80;;;8.77;;
42430;SDS011;71905;47.466;19.024;2024-03-07T14:46:49;12.23;;;8.73;;
42430;SDS011;71905;47.466;19.024;2024-03-07T14:49:21;11.50;;;8.80;;
42430;SDS011;71905;47.466;19.024;2024-03-07T14:51:50;12.10;;;8.68;;
42430;SDS011;71905;47.466;19.024;2024-03-07T14:54:28;15.38;;;9.10;;